首页
METAR-TAF:

METAR-TAF

机场 :

贝灵厄姆, 华盛顿, 美国

纬度: 48-47-58N, 经度: 122-32-21W, 海拔: 48米

当前天气观测

该预报发布于29分钟前的09:53 UTC
风速5节,风向南转南东
温度 11°C
湿度 76%
气压 1014 hPa
能見度: 16.1公里
多云层高于3900英尺

METAR: KBLI 150953Z AUTO 16005KT 10SM BKN039 11/07 A2994 RMK AO2 SLP146 T01060072

时间: 02:22 (10:22 UTC)

预报

该预报发布于4小时和41分钟前的05:41 UTC
预报有效从15日的 06点(UTC)到 16日的 06点(UTC)
风速4节,风向多变
能見度: 10公里
散云层高于1500英尺
阴天层高于10000英尺
附近有阵雨
从 15日的 1000点(UTC)
风速6节,风向南转南东
能見度: 10公里
多云层高于1500英尺
阴天层高于8000英尺
附近有阵雨
从 15日的 1300点(UTC)
风速8节,风向南转南东
能見度: 9.7公里
多云层高于1000英尺
阴天层高于2000英尺
小雨
从 15日的 1900点(UTC)
风速13节,风向
能見度: 10公里
阴天层高于1500英尺
小阵雨
从 15日的 2300点(UTC)
风速8节,风向
能見度: 10公里
多云层高于3000英尺
附近有阵雨

TAF: KBLI 150541Z 1506/1606 VRB04KT P6SM VCSH SCT015 OVC100 FM151000 15006KT P6SM VCSH BKN015 OVC080 FM151300 16008KT 6SM -RA BKN010 OVC020 FM151900 17013KT P6SM -SHRA OVC015 FM152300 18008KT P6SM VCSH BKN030

超过4000个机场的气象观测和天气预报(METAR&TAF报告)。

可查询的气象台以黄色和红色小点在地图上表示。

将鼠标移到小点上方,可查看气象台名称。

然后点击查看天气观测和预报。

如需切换地图:点击带黑十字的绿色按钮放大地图;点击带横线的绿色按钮缩小地图;或者点击绿色箭头查看邻近地区的地图。


METAR-TAF: